sensor_id;sensor_type;location;lat;lon;timestamp;pressure;altitude;pressure_sealevel;temperature;humidity
37648;BME280;23490;53.656;10.076;2023-03-18T00:02:03;98753.06;;;-145.95;66.43
37648;BME280;23490;53.656;10.076;2023-03-18T00:04:29;98794.38;;;-145.95;69.73
37648;BME280;23490;53.656;10.076;2023-03-18T00:06:55;98837.72;;;-145.95;67.85
37648;BME280;23490;53.656;10.076;2023-03-18T00:09:21;98761.34;;;-145.95;66.98
37648;BME280;23490;53.656;10.076;2023-03-18T00:11:47;98806.75;;;-145.95;66.37
37648;BME280;23490;53.656;10.076;2023-03-18T00:14:12;98761.34;;;-145.95;66.70
37648;BME280;23490;53.656;10.076;2023-03-18T00:16:38;98804.69;;;-145.95;66.17
37648;BME280;23490;53.656;10.076;2023-03-18T00:19:04;98831.53;;;-145.95;67.00
37648;BME280;23490;53.656;10.076;2023-03-18T00:21:31;98777.84;;;-145.95;66.40
37648;BME280;23490;53.656;10.076;2023-03-18T00:23:57;98806.75;;;-145.95;68.81
37648;BME280;23490;53.656;10.076;2023-03-18T00:26:25;98804.69;;;-145.95;67.55
37648;BME280;23490;53.656;10.076;2023-03-18T00:28:53;98786.09;;;-145.95;67.11
37648;BME280;23490;53.656;10.076;2023-03-18T00:31:20;98806.75;;;-145.95;66.92
37648;BME280;23490;53.656;10.076;2023-03-18T00:33:46;98815.03;;;-145.95;66.94
37648;BME280;23490;53.656;10.076;2023-03-18T00:36:13;98819.16;;;-145.95;66.88
37648;BME280;23490;53.656;10.076;2023-03-18T00:38:42;98812.94;;;-145.95;67.28
37648;BME280;23490;53.656;10.076;2023-03-18T00:41:11;98790.25;;;-145.95;66.52
37648;BME280;23490;53.656;10.076;2023-03-18T00:43:47;98798.50;;;-145.95;67.54
37648;BME280;23490;53.656;10.076;2023-03-18T00:46:25;98792.31;;;-145.95;66.49
37648;BME280;23490;53.656;10.076;2023-03-18T00:48:53;98777.84;;;-145.95;66.61
37648;BME280;23490;53.656;10.076;2023-03-18T00:51:20;98808.81;;;-145.95;66.58
37648;BME280;23490;53.656;10.076;2023-03-18T00:53:52;98794.38;;;-145.95;66.98
37648;BME280;23490;53.656;10.076;2023-03-18T00:56:20;98779.91;;;-145.95;66.93
37648;BME280;23490;53.656;10.076;2023-03-18T00:58:47;98773.72;;;-145.95;66.84
37648;BME280;23490;53.656;10.076;2023-03-18T01:01:14;98740.69;;;-145.95;67.25
37648;BME280;23490;53.656;10.076;2023-03-18T01:03:40;98819.16;;;-145.95;67.50
37648;BME280;23490;53.656;10.076;2023-03-18T01:06:15;98829.47;;;-145.95;68.05
37648;BME280;23490;53.656;10.076;2023-03-18T01:08:41;98798.50;;;-145.95;67.94
37648;BME280;23490;53.656;10.076;2023-03-18T01:11:07;98806.75;;;-145.95;68.48
37648;BME280;23490;53.656;10.076;2023-03-18T01:13:34;98777.84;;;-145.95;68.33
37648;BME280;23490;53.656;10.076;2023-03-18T01:16:00;98777.84;;;-145.95;67.95
37648;BME280;23490;53.656;10.076;2023-03-18T01:18:26;98810.88;;;-145.95;68.06
37648;BME280;23490;53.656;10.076;2023-03-18T01:20:52;98769.59;;;-145.95;68.87
37648;BME280;23490;53.656;10.076;2023-03-18T01:23:18;98823.28;;;-145.95;69.34
37648;BME280;23490;53.656;10.076;2023-03-18T01:25:44;98819.16;;;-145.95;69.88
37648;BME280;23490;53.656;10.076;2023-03-18T01:28:10;98831.53;;;-145.95;70.70
37648;BME280;23490;53.656;10.076;2023-03-18T01:30:37;98802.63;;;-145.95;71.01
37648;BME280;23490;53.656;10.076;2023-03-18T01:33:03;98837.72;;;-145.95;71.50
37648;BME280;23490;53.656;10.076;2023-03-18T01:35:30;98790.25;;;-145.95;72.42
37648;BME280;23490;53.656;10.076;2023-03-18T01:37:56;98860.44;;;-145.95;72.23
37648;BME280;23490;53.656;10.076;2023-03-18T01:40:22;98771.66;;;-145.95;71.91
37648;BME280;23490;53.656;10.076;2023-03-18T01:42:54;98823.28;;;-145.95;72.20
37648;BME280;23490;53.656;10.076;2023-03-18T01:45:27;98827.41;;;-145.95;73.25
37648;BME280;23490;53.656;10.076;2023-03-18T01:47:54;98852.19;;;-145.95;73.37
37648;BME280;23490;53.656;10.076;2023-03-18T01:50:40;98841.84;;;-145.95;73.62
37648;BME280;23490;53.656;10.076;2023-03-18T01:53:10;98843.94;;;-145.95;74.44
37648;BME280;23490;53.656;10.076;2023-03-18T01:55:37;98872.84;;;-145.95;74.77
37648;BME280;23490;53.656;10.076;2023-03-18T01:58:09;98841.84;;;-145.95;75.81
37648;BME280;23490;53.656;10.076;2023-03-18T02:00:40;98823.28;;;-145.95;75.10
37648;BME280;23490;53.656;10.076;2023-03-18T02:03:09;98848.06;;;-145.95;75.17
37648;BME280;23490;53.656;10.076;2023-03-18T02:05:34;98868.72;;;-145.95;75.62
37648;BME280;23490;53.656;10.076;2023-03-18T02:08:02;98819.16;;;-145.95;76.13
37648;BME280;23490;53.656;10.076;2023-03-18T02:10:29;98831.53;;;-145.95;75.21
37648;BME280;23490;53.656;10.076;2023-03-18T02:13:05;98831.53;;;-145.95;75.80
37648;BME280;23490;53.656;10.076;2023-03-18T02:15:31;98831.53;;;-145.95;75.73
37648;BME280;23490;53.656;10.076;2023-03-18T02:18:06;98910.00;;;-145.95;76.89
37648;BME280;23490;53.656;10.076;2023-03-18T02:23:30;98874.91;;;-145.95;77.40
37648;BME280;23490;53.656;10.076;2023-03-18T02:28:36;98843.94;;;-145.95;78.02
37648;BME280;23490;53.656;10.076;2023-03-18T02:31:05;98862.50;;;-145.95;78.50
37648;BME280;23490;53.656;10.076;2023-03-18T02:33:35;98831.53;;;-145.95;78.02
37648;BME280;23490;53.656;10.076;2023-03-18T02:36:09;98821.22;;;-145.95;79.40
37648;BME280;23490;53.656;10.076;2023-03-18T02:38:42;98858.38;;;-145.95;80.55
37648;BME280;23490;53.656;10.076;2023-03-18T02:41:13;98879.03;;;-145.95;81.80
37648;BME280;23490;53.656;10.076;2023-03-18T02:43:39;98839.78;;;-145.95;81.77
37648;BME280;23490;53.656;10.076;2023-03-18T02:48:53;98881.09;;;-145.95;86.44
37648;BME280;23490;53.656;10.076;2023-03-18T02:51:20;98893.47;;;-145.95;85.95
37648;BME280;23490;53.656;10.076;2023-03-18T02:53:46;98837.72;;;-145.95;86.63
37648;BME280;23490;53.656;10.076;2023-03-18T02:56:12;98876.97;;;-145.95;85.75
37648;BME280;23490;53.656;10.076;2023-03-18T02:58:38;98905.88;;;-145.95;87.59
37648;BME280;23490;53.656;10.076;2023-03-18T03:01:05;98856.31;;;-145.95;89.49
37648;BME280;23490;53.656;10.076;2023-03-18T03:03:33;98885.22;;;-145.95;88.33
37648;BME280;23490;53.656;10.076;2023-03-18T03:05:59;98901.75;;;-145.95;94.62
37648;BME280;23490;53.656;10.076;2023-03-18T03:08:26;98910.00;;;-145.95;98.42
37648;BME280;23490;53.656;10.076;2023-03-18T03:10:52;98914.13;;;-145.95;96.64
37648;BME280;23490;53.656;10.076;2023-03-18T03:13:19;98928.59;;;-145.95;94.76
37648;BME280;23490;53.656;10.076;2023-03-18T03:15:45;98901.75;;;-145.95;94.18
37648;BME280;23490;53.656;10.076;2023-03-18T03:18:11;98910.00;;;-145.95;92.16
37648;BME280;23490;53.656;10.076;2023-03-18T03:20:37;98901.75;;;-145.95;96.19
37648;BME280;23490;53.656;10.076;2023-03-18T03:23:08;98924.47;;;-145.95;98.10
37648;BME280;23490;53.656;10.076;2023-03-18T03:25:35;98907.94;;;-145.95;96.34
37648;BME280;23490;53.656;10.076;2023-03-18T03:28:00;98930.66;;;-145.95;97.34
37648;BME280;23490;53.656;10.076;2023-03-18T03:30:27;98934.78;;;-145.95;100.00
37648;BME280;23490;53.656;10.076;2023-03-18T03:32:53;98912.06;;;-145.95;100.00
37648;BME280;23490;53.656;10.076;2023-03-18T03:35:20;98930.66;;;-145.95;100.00
37648;BME280;23490;53.656;10.076;2023-03-18T03:37:45;98982.28;;;-145.95;100.00
37648;BME280;23490;53.656;10.076;2023-03-18T03:40:14;98951.31;;;-145.95;100.00
37648;BME280;23490;53.656;10.076;2023-03-18T03:42:40;98943.03;;;-145.95;100.00
37648;BME280;23490;53.656;10.076;2023-03-18T03:45:07;98957.50;;;-145.95;100.00
37648;BME280;23490;53.656;10.076;2023-03-18T03:47:32;98992.59;;;-145.95;100.00
37648;BME280;23490;53.656;10.076;2023-03-18T03:49:58;98963.69;;;-145.95;100.00
37648;BME280;23490;53.656;10.076;2023-03-18T03:52:24;98996.72;;;-145.95;100.00
37648;BME280;23490;53.656;10.076;2023-03-18T03:54:49;99025.63;;;-145.95;100.00
37648;BME280;23490;53.656;10.076;2023-03-18T03:57:16;99000.84;;;-145.95;100.00
37648;BME280;23490;53.656;10.076;2023-03-18T03:59:41;99017.38;;;-145.95;100.00
37648;BME280;23490;53.656;10.076;2023-03-18T04:02:07;98992.59;;;-145.95;100.00
37648;BME280;23490;53.656;10.076;2023-03-18T04:04:33;99009.13;;;-145.95;100.00
37648;BME280;23490;53.656;10.076;2023-03-18T04:06:58;98982.28;;;-145.95;100.00
37648;BME280;23490;53.656;10.076;2023-03-18T04:09:23;98980.22;;;-145.95;100.00
37648;BME280;23490;53.656;10.076;2023-03-18T04:11:49;99019.44;;;-145.95;100.00
37648;BME280;23490;53.656;10.076;2023-03-18T04:14:14;98967.81;;;-145.95;100.00
37648;BME280;23490;53.656;10.076;2023-03-18T04:16:40;98988.47;;;-145.95;100.00
37648;BME280;23490;53.656;10.076;2023-03-18T04:19:05;98992.59;;;-145.95;100.00
37648;BME280;23490;53.656;10.076;2023-03-18T04:21:31;98961.63;;;-145.95;100.00
37648;BME280;23490;53.656;10.076;2023-03-18T04:23:57;99000.84;;;-145.95;100.00
37648;BME280;23490;53.656;10.076;2023-03-18T04:26:22;98998.78;;;-145.95;100.00
37648;BME280;23490;53.656;10.076;2023-03-18T04:28:47;98990.53;;;-145.95;100.00
37648;BME280;23490;53.656;10.076;2023-03-18T04:31:13;98969.88;;;-145.95;100.00
37648;BME280;23490;53.656;10.076;2023-03-18T04:33:39;98988.47;;;-145.95;100.00
37648;BME280;23490;53.656;10.076;2023-03-18T04:36:05;98992.59;;;-145.95;100.00
37648;BME280;23490;53.656;10.076;2023-03-18T04:38:32;98959.56;;;-145.95;100.00
37648;BME280;23490;53.656;10.076;2023-03-18T04:40:58;98965.75;;;-145.95;100.00
37648;BME280;23490;53.656;10.076;2023-03-18T04:43:23;99021.50;;;-145.95;100.00
37648;BME280;23490;53.656;10.076;2023-03-18T04:45:49;98982.28;;;-145.95;100.00
37648;BME280;23490;53.656;10.076;2023-03-18T04:48:14;99009.13;;;-145.95;100.00
37648;BME280;23490;53.656;10.076;2023-03-18T04:50:40;98996.72;;;-145.95;100.00
37648;BME280;23490;53.656;10.076;2023-03-18T04:53:07;98971.94;;;-145.95;100.00
37648;BME280;23490;53.656;10.076;2023-03-18T04:55:33;98963.69;;;-145.95;100.00
37648;BME280;23490;53.656;10.076;2023-03-18T04:57:58;99019.44;;;-145.95;100.00
37648;BME280;23490;53.656;10.076;2023-03-18T05:00:24;99017.38;;;-145.95;100.00
37648;BME280;23490;53.656;10.076;2023-03-18T05:02:49;99000.84;;;-145.95;100.00
37648;BME280;23490;53.656;10.076;2023-03-18T05:05:15;98976.09;;;-145.95;100.00
37648;BME280;23490;53.656;10.076;2023-03-18T05:07:40;98971.94;;;-145.95;100.00
37648;BME280;23490;53.656;10.076;2023-03-18T05:10:07;99009.13;;;-145.95;100.00
37648;BME280;23490;53.656;10.076;2023-03-18T05:12:33;99009.13;;;-145.95;100.00
37648;BME280;23490;53.656;10.076;2023-03-18T05:14:58;99009.13;;;-145.95;100.00
37648;BME280;23490;53.656;10.076;2023-03-18T05:17:24;99011.19;;;-145.95;100.00
37648;BME280;23490;53.656;10.076;2023-03-18T05:19:50;98992.59;;;-145.95;100.00
37648;BME280;23490;53.656;10.076;2023-03-18T05:22:17;98951.31;;;-145.95;100.00
37648;BME280;23490;53.656;10.076;2023-03-18T05:24:44;98959.56;;;-145.95;100.00
37648;BME280;23490;53.656;10.076;2023-03-18T05:27:11;98976.09;;;-145.95;100.00
37648;BME280;23490;53.656;10.076;2023-03-18T05:29:37;99009.13;;;-145.95;100.00
37648;BME280;23490;53.656;10.076;2023-03-18T05:32:05;99009.13;;;-145.95;100.00
37648;BME280;23490;53.656;10.076;2023-03-18T05:34:34;98971.94;;;-145.95;100.00
37648;BME280;23490;53.656;10.076;2023-03-18T05:37:03;98988.47;;;-145.95;100.00
37648;BME280;23490;53.656;10.076;2023-03-18T05:39:29;99000.84;;;-145.95;100.00
37648;BME280;23490;53.656;10.076;2023-03-18T05:41:56;98992.59;;;-145.95;100.00
37648;BME280;23490;53.656;10.076;2023-03-18T05:44:22;98992.59;;;-145.95;100.00
37648;BME280;23490;53.656;10.076;2023-03-18T05:46:47;98959.56;;;-145.95;100.00
37648;BME280;23490;53.656;10.076;2023-03-18T05:49:13;99013.25;;;-145.95;100.00
37648;BME280;23490;53.656;10.076;2023-03-18T05:51:38;98986.41;;;-145.95;100.00
37648;BME280;23490;53.656;10.076;2023-03-18T05:54:04;99021.50;;;-145.95;100.00
37648;BME280;23490;53.656;10.076;2023-03-18T05:56:29;99013.25;;;-145.95;100.00
37648;BME280;23490;53.656;10.076;2023-03-18T05:58:55;98996.72;;;-145.95;100.00
37648;BME280;23490;53.656;10.076;2023-03-18T06:01:21;98980.22;;;-145.95;100.00
37648;BME280;23490;53.656;10.076;2023-03-18T06:03:46;98984.34;;;-145.95;100.00
37648;BME280;23490;53.656;10.076;2023-03-18T06:06:11;98959.56;;;-145.95;100.00
37648;BME280;23490;53.656;10.076;2023-03-18T06:08:37;98980.22;;;-145.95;100.00
37648;BME280;23490;53.656;10.076;2023-03-18T06:11:03;98986.41;;;-145.95;100.00
37648;BME280;23490;53.656;10.076;2023-03-18T06:13:28;98967.81;;;-145.95;100.00
37648;BME280;23490;53.656;10.076;2023-03-18T06:15:56;98943.03;;;-145.95;100.00
37648;BME280;23490;53.656;10.076;2023-03-18T06:18:21;98910.00;;;-145.95;100.00
37648;BME280;23490;53.656;10.076;2023-03-18T06:20:47;98967.81;;;-145.95;100.00
37648;BME280;23490;53.656;10.076;2023-03-18T06:23:12;98938.91;;;-145.95;100.00
37648;BME280;23490;53.656;10.076;2023-03-18T06:25:39;98955.44;;;-145.95;100.00
37648;BME280;23490;53.656;10.076;2023-03-18T06:28:05;98965.75;;;-145.95;100.00
37648;BME280;23490;53.656;10.076;2023-03-18T06:30:31;98959.56;;;-145.95;100.00
37648;BME280;23490;53.656;10.076;2023-03-18T06:32:58;98974.00;;;-145.95;100.00
37648;BME280;23490;53.656;10.076;2023-03-18T06:35:23;98951.31;;;-145.95;100.00
37648;BME280;23490;53.656;10.076;2023-03-18T06:37:51;98947.16;;;-145.95;100.00
37648;BME280;23490;53.656;10.076;2023-03-18T06:40:17;98938.91;;;-145.95;100.00
37648;BME280;23490;53.656;10.076;2023-03-18T06:42:42;98959.56;;;-145.95;100.00
37648;BME280;23490;53.656;10.076;2023-03-18T06:45:10;98955.44;;;-145.95;100.00
37648;BME280;23490;53.656;10.076;2023-03-18T06:47:36;98922.41;;;-145.95;100.00
37648;BME280;23490;53.656;10.076;2023-03-18T06:50:01;98984.34;;;-145.95;100.00
37648;BME280;23490;53.656;10.076;2023-03-18T06:52:27;98943.03;;;-145.95;100.00
37648;BME280;23490;53.656;10.076;2023-03-18T06:54:52;98949.22;;;-145.95;100.00
37648;BME280;23490;53.656;10.076;2023-03-18T06:57:18;98955.44;;;-145.95;100.00
37648;BME280;23490;53.656;10.076;2023-03-18T06:59:45;98945.09;;;-145.95;100.00
37648;BME280;23490;53.656;10.076;2023-03-18T07:02:11;98914.13;;;-145.95;100.00
37648;BME280;23490;53.656;10.076;2023-03-18T07:04:37;98922.41;;;-145.95;100.00
37648;BME280;23490;53.656;10.076;2023-03-18T07:07:03;98903.81;;;-145.95;100.00
37648;BME280;23490;53.656;10.076;2023-03-18T07:09:29;98881.09;;;-145.95;100.00
37648;BME280;23490;53.656;10.076;2023-03-18T07:11:55;98893.47;;;-145.95;100.00
37648;BME280;23490;53.656;10.076;2023-03-18T07:14:21;98868.72;;;-145.95;100.00
37648;BME280;23490;53.656;10.076;2023-03-18T07:16:46;98881.09;;;-145.95;100.00
37648;BME280;23490;53.656;10.076;2023-03-18T07:19:12;98839.78;;;-145.95;100.00
37648;BME280;23490;53.656;10.076;2023-03-18T07:21:37;98825.34;;;-145.95;100.00
37648;BME280;23490;53.656;10.076;2023-03-18T07:24:04;98831.53;;;-145.95;99.08
37648;BME280;23490;53.656;10.076;2023-03-18T07:26:29;98802.63;;;-145.95;99.76
37648;BME280;23490;53.656;10.076;2023-03-18T07:28:56;98827.41;;;-145.95;99.00
37648;BME280;23490;53.656;10.076;2023-03-18T07:31:21;98786.09;;;-145.95;97.07
37648;BME280;23490;53.656;10.076;2023-03-18T07:33:47;98761.34;;;-145.95;97.16
37648;BME280;23490;53.656;10.076;2023-03-18T07:36:13;98773.72;;;-145.95;95.74
37648;BME280;23490;53.656;10.076;2023-03-18T07:38:39;98711.78;;;-145.95;95.47
37648;BME280;23490;53.656;10.076;2023-03-18T07:41:04;98759.25;;;-145.95;94.53
37648;BME280;23490;53.656;10.076;2023-03-18T07:43:30;98757.19;;;-145.95;94.17
37648;BME280;23490;53.656;10.076;2023-03-18T07:45:55;98757.19;;;-145.95;94.11
37648;BME280;23490;53.656;10.076;2023-03-18T07:48:21;98744.81;;;-145.95;93.86
37648;BME280;23490;53.656;10.076;2023-03-18T07:50:46;98781.97;;;-145.95;93.58
37648;BME280;23490;53.656;10.076;2023-03-18T07:53:11;98765.47;;;-145.95;92.92
37648;BME280;23490;53.656;10.076;2023-03-18T07:55:37;98761.34;;;-145.95;92.33
37648;BME280;23490;53.656;10.076;2023-03-18T07:58:03;98699.38;;;-145.95;94.33
37648;BME280;23490;53.656;10.076;2023-03-18T08:00:29;98753.06;;;-145.95;92.79
37648;BME280;23490;53.656;10.076;2023-03-18T08:02:55;98732.44;;;-145.95;93.53
37648;BME280;23490;53.656;10.076;2023-03-18T08:05:22;98744.81;;;-145.95;93.20
37648;BME280;23490;53.656;10.076;2023-03-18T08:07:47;98744.81;;;-145.95;94.06
37648;BME280;23490;53.656;10.076;2023-03-18T08:10:14;98757.19;;;-145.95;92.55
37648;BME280;23490;53.656;10.076;2023-03-18T08:12:40;98703.53;;;-145.95;92.09
37648;BME280;23490;53.656;10.076;2023-03-18T08:15:06;98703.53;;;-145.95;92.44
37648;BME280;23490;53.656;10.076;2023-03-18T08:17:34;98711.78;;;-145.95;92.45
37648;BME280;23490;53.656;10.076;2023-03-18T08:19:59;98734.50;;;-145.95;94.21
37648;BME280;23490;53.656;10.076;2023-03-18T08:22:25;98699.38;;;-145.95;93.26
37648;BME280;23490;53.656;10.076;2023-03-18T08:24:50;98691.13;;;-145.95;93.76
37648;BME280;23490;53.656;10.076;2023-03-18T08:27:16;98720.03;;;-145.95;91.75
37648;BME280;23490;53.656;10.076;2023-03-18T08:29:42;98711.78;;;-145.95;92.14
37648;BME280;23490;53.656;10.076;2023-03-18T08:32:07;98724.16;;;-145.95;92.02
37648;BME280;23490;53.656;10.076;2023-03-18T08:34:33;98703.53;;;-145.95;91.17
37648;BME280;23490;53.656;10.076;2023-03-18T08:37:00;98699.38;;;-145.95;92.82
37648;BME280;23490;53.656;10.076;2023-03-18T08:39:25;98744.81;;;-145.95;92.35
37648;BME280;23490;53.656;10.076;2023-03-18T08:41:51;98761.34;;;-145.95;93.14
37648;BME280;23490;53.656;10.076;2023-03-18T08:44:16;98736.56;;;-145.95;92.25
37648;BME280;23490;53.656;10.076;2023-03-18T08:46:42;98711.78;;;-145.95;91.79
37648;BME280;23490;53.656;10.076;2023-03-18T08:49:09;98728.28;;;-145.95;92.78
37648;BME280;23490;53.656;10.076;2023-03-18T08:51:34;98777.84;;;-145.95;94.05
37648;BME280;23490;53.656;10.076;2023-03-18T08:54:00;98773.72;;;-145.95;93.86
37648;BME280;23490;53.656;10.076;2023-03-18T08:56:26;98748.94;;;-145.95;94.13
37648;BME280;23490;53.656;10.076;2023-03-18T08:58:51;98742.75;;;-145.95;95.29
37648;BME280;23490;53.656;10.076;2023-03-18T09:01:18;98755.13;;;-145.95;94.72
37648;BME280;23490;53.656;10.076;2023-03-18T09:03:49;98775.78;;;-145.95;95.01
37648;BME280;23490;53.656;10.076;2023-03-18T09:06:16;98773.72;;;-145.95;93.60
37648;BME280;23490;53.656;10.076;2023-03-18T09:08:41;98761.34;;;-145.95;92.98
37648;BME280;23490;53.656;10.076;2023-03-18T09:11:08;98769.59;;;-145.95;94.45
37648;BME280;23490;53.656;10.076;2023-03-18T09:13:34;98773.72;;;-145.95;94.31
37648;BME280;23490;53.656;10.076;2023-03-18T09:16:00;98765.47;;;-145.95;94.00
37648;BME280;23490;53.656;10.076;2023-03-18T09:18:25;98786.09;;;-145.95;94.46
37648;BME280;23490;53.656;10.076;2023-03-18T09:20:51;98773.72;;;-145.95;96.07
37648;BME280;23490;53.656;10.076;2023-03-18T09:23:18;98765.47;;;-145.95;97.92
37648;BME280;23490;53.656;10.076;2023-03-18T09:25:47;98786.09;;;-145.95;99.20
37648;BME280;23490;53.656;10.076;2023-03-18T09:28:14;98833.59;;;-145.95;100.00
37648;BME280;23490;53.656;10.076;2023-03-18T09:30:40;98779.91;;;-145.95;100.00
37648;BME280;23490;53.656;10.076;2023-03-18T09:33:05;98781.97;;;-145.95;100.00
37648;BME280;23490;53.656;10.076;2023-03-18T09:35:32;98806.75;;;-145.95;100.00
37648;BME280;23490;53.656;10.076;2023-03-18T09:37:58;98831.53;;;-145.95;100.00
37648;BME280;23490;53.656;10.076;2023-03-18T09:40:26;98806.75;;;-145.95;100.00
37648;BME280;23490;53.656;10.076;2023-03-18T09:43:08;98823.28;;;-145.95;100.00
37648;BME280;23490;53.656;10.076;2023-03-18T09:54:38;98827.41;;;-145.95;100.00
37648;BME280;23490;53.656;10.076;2023-03-18T09:57:12;98806.75;;;-145.95;100.00
37648;BME280;23490;53.656;10.076;2023-03-18T09:59:43;98765.47;;;-145.95;100.00
37648;BME280;23490;53.656;10.076;2023-03-18T10:02:16;98794.38;;;-145.95;100.00
37648;BME280;23490;53.656;10.076;2023-03-18T10:04:45;98790.25;;;-145.95;100.00
37648;BME280;23490;53.656;10.076;2023-03-18T10:07:16;98761.34;;;-145.95;100.00
37648;BME280;23490;53.656;10.076;2023-03-18T10:10:08;98757.19;;;-145.95;100.00
37648;BME280;23490;53.656;10.076;2023-03-18T10:12:34;98767.53;;;-145.95;100.00
37648;BME280;23490;53.656;10.076;2023-03-18T10:15:05;98765.47;;;-145.95;100.00
37648;BME280;23490;53.656;10.076;2023-03-18T10:17:57;98703.53;;;-145.95;100.00
37648;BME280;23490;53.656;10.076;2023-03-18T10:23:30;98323.63;;;-145.95;91.98
37648;BME280;23490;53.656;10.076;2023-03-18T10:26:55;98325.69;;;-145.95;86.13
37648;BME280;23490;53.656;10.076;2023-03-18T10:32:22;98426.84;;;-145.95;86.58
37648;BME280;23490;53.656;10.076;2023-03-18T10:35:00;98509.44;;;-145.95;85.61
37648;BME280;23490;53.656;10.076;2023-03-18T10:37:41;98499.09;;;-145.95;88.18
37648;BME280;23490;53.656;10.076;2023-03-18T10:40:16;98509.44;;;-145.95;87.92
37648;BME280;23490;53.656;10.076;2023-03-18T10:42:42;98528.00;;;-145.95;88.09
37648;BME280;23490;53.656;10.076;2023-03-18T10:45:15;98476.41;;;-145.95;88.60
37648;BME280;23490;53.656;10.076;2023-03-18T10:47:48;98534.22;;;-145.95;88.88
37648;BME280;23490;53.656;10.076;2023-03-18T10:50:24;98525.94;;;-145.95;88.16
37648;BME280;23490;53.656;10.076;2023-03-18T10:52:59;98468.13;;;-145.95;88.65
37648;BME280;23490;53.656;10.076;2023-03-18T10:55:34;98523.88;;;-145.95;88.53
37648;BME280;23490;53.656;10.076;2023-03-18T10:58:04;98435.09;;;-145.95;86.60
37648;BME280;23490;53.656;10.076;2023-03-18T11:00:39;98348.38;;;-145.95;85.88
37648;BME280;23490;53.656;10.076;2023-03-18T11:03:04;98238.97;;;-145.95;85.82
37648;BME280;23490;53.656;10.076;2023-03-18T11:05:34;98265.81;;;-145.95;81.23
37648;BME280;23490;53.656;10.076;2023-03-18T11:08:03;98177.03;;;-145.95;77.52
37648;BME280;23490;53.656;10.076;2023-03-18T11:10:35;98234.84;;;-145.95;79.05
37648;BME280;23490;53.656;10.076;2023-03-18T11:13:01;98307.09;;;-145.95;80.08
37648;BME280;23490;53.656;10.076;2023-03-18T11:15:28;98294.72;;;-145.95;81.82
37648;BME280;23490;53.656;10.076;2023-03-18T11:18:00;98174.97;;;-145.95;77.49
37648;BME280;23490;53.656;10.076;2023-03-18T11:20:38;98055.22;;;-145.95;76.94
37648;BME280;23490;53.656;10.076;2023-03-18T11:23:27;98133.69;;;-145.95;75.52
37648;BME280;23490;53.656;10.076;2023-03-18T11:26:19;98205.94;;;-145.95;74.41
37648;BME280;23490;53.656;10.076;2023-03-18T11:28:44;98276.13;;;-145.95;77.29
37648;BME280;23490;53.656;10.076;2023-03-18T11:31:15;98205.94;;;-145.95;79.45
37648;BME280;23490;53.656;10.076;2023-03-18T11:33:41;98276.13;;;-145.95;75.73
37648;BME280;23490;53.656;10.076;2023-03-18T11:36:08;98241.03;;;-145.95;75.07
37648;BME280;23490;53.656;10.076;2023-03-18T11:38:35;98298.84;;;-145.95;77.19
37648;BME280;23490;53.656;10.076;2023-03-18T11:41:17;98435.09;;;-145.95;79.28
37648;BME280;23490;53.656;10.076;2023-03-18T11:46:22;97923.13;;;-145.95;73.89
37648;BME280;23490;53.656;10.076;2023-03-18T11:48:48;97724.94;;;-145.95;71.42
37648;BME280;23490;53.656;10.076;2023-03-18T11:51:27;97539.19;;;-145.95;64.89
37648;BME280;23490;53.656;10.076;2023-03-18T11:56:44;97749.72;;;-145.95;61.84
37648;BME280;23490;53.656;10.076;2023-03-18T11:59:14;97974.72;;;-145.95;64.45
37648;BME280;23490;53.656;10.076;2023-03-18T12:01:46;98042.84;;;-145.95;65.75
37648;BME280;23490;53.656;10.076;2023-03-18T12:04:35;97799.25;;;-145.95;66.12
37648;BME280;23490;53.656;10.076;2023-03-18T12:10:23;97568.06;;;-145.95;62.31
37648;BME280;23490;53.656;10.076;2023-03-18T12:15:37;97929.31;;;-145.95;62.50
37648;BME280;23490;53.656;10.076;2023-03-18T12:20:48;97898.34;;;-145.95;63.71
37648;BME280;23490;53.656;10.076;2023-03-18T12:23:47;98129.56;;;-145.95;65.69
37648;BME280;23490;53.656;10.076;2023-03-18T12:26:28;98088.25;;;-145.95;64.89
37648;BME280;23490;53.656;10.076;2023-03-18T12:29:25;97700.19;;;-145.95;64.31
37648;BME280;23490;53.656;10.076;2023-03-18T12:32:13;98018.06;;;-145.95;64.64
37648;BME280;23490;53.656;10.076;2023-03-18T12:37:27;97506.16;;;-145.95;59.42
37648;BME280;23490;53.656;10.076;2023-03-18T12:40:06;97753.84;;;-145.95;58.44
37648;BME280;23490;53.656;10.076;2023-03-18T12:42:54;97283.25;;;-145.95;57.19
37648;BME280;23490;53.656;10.076;2023-03-18T12:45:29;97522.66;;;-145.95;53.03
37648;BME280;23490;53.656;10.076;2023-03-18T12:48:02;97634.13;;;-145.95;56.23
37648;BME280;23490;53.656;10.076;2023-03-18T12:50:46;97576.31;;;-145.95;54.29
37648;BME280;23490;53.656;10.076;2023-03-18T12:53:27;97502.03;;;-145.95;52.58
37648;BME280;23490;53.656;10.076;2023-03-18T12:55:59;97254.34;;;-145.95;56.06
37648;BME280;23490;53.656;10.076;2023-03-18T12:58:31;97605.22;;;-145.95;55.43
37648;BME280;23490;53.656;10.076;2023-03-18T13:01:06;97551.56;;;-145.95;53.14
37648;BME280;23490;53.656;10.076;2023-03-18T13:06:15;97729.06;;;-145.95;55.86
37648;BME280;23490;53.656;10.076;2023-03-18T13:08:53;97865.31;;;-145.95;57.71
37648;BME280;23490;53.656;10.076;2023-03-18T13:14:00;97737.34;;;-145.95;56.71
37648;BME280;23490;53.656;10.076;2023-03-18T13:16:29;97605.22;;;-145.95;57.37
37648;BME280;23490;53.656;10.076;2023-03-18T13:18:56;97673.34;;;-145.95;55.85